createdAt,value
2023-03-07T00:03:48.903Z,14.33
2023-03-07T00:08:52.917Z,12.43
2023-03-07T00:13:57.927Z,15.50
2023-03-07T00:19:01.630Z,15.27
2023-03-07T00:24:05.558Z,13.07
2023-03-07T00:29:11.060Z,14.93
2023-03-07T00:34:14.335Z,14.80
2023-03-07T00:39:17.565Z,15.90
2023-03-07T00:44:22.666Z,16.47
2023-03-07T00:49:26.169Z,13.33
2023-03-07T00:54:29.514Z,14.23
2023-03-07T00:59:34.423Z,13.20
2023-03-07T01:04:37.871Z,12.00
2023-03-07T01:09:41.232Z,13.07
2023-03-07T01:14:47.213Z,12.43
2023-03-07T01:19:50.539Z,15.57
2023-03-07T01:24:53.903Z,14.47
2023-03-07T01:29:58.595Z,11.40
2023-03-07T01:35:01.985Z,13.50
2023-03-07T01:40:06.000Z,12.73
2023-03-07T01:45:42.427Z,11.70
2023-03-07T01:50:47.636Z,13.20
2023-03-07T01:55:51.770Z,12.63
2023-03-07T02:00:56.012Z,12.97
2023-03-07T02:06:03.906Z,14.13
2023-03-07T02:11:07.641Z,12.07
2023-03-07T02:16:11.165Z,14.80
2023-03-07T02:21:24.332Z,14.47
2023-03-07T02:26:43.879Z,15.83
2023-03-07T02:31:47.315Z,12.13
2023-03-07T02:36:54.518Z,13.23
2023-03-07T02:42:00.690Z,14.00
2023-03-07T02:47:05.594Z,13.40
2023-03-07T02:52:08.915Z,13.13
2023-03-07T02:57:13.539Z,12.27
2023-03-07T03:02:16.993Z,13.97
2023-03-07T03:07:20.341Z,13.37
2023-03-07T03:12:25.119Z,13.10
2023-03-07T03:17:28.648Z,13.83
2023-03-07T03:22:31.928Z,14.57
2023-03-07T03:27:37.034Z,14.67
2023-03-07T03:32:41.628Z,12.60
2023-03-07T03:37:44.990Z,13.97
2023-03-07T03:42:51.018Z,14.47
2023-03-07T03:47:54.331Z,13.90
2023-03-07T03:52:57.650Z,13.93
2023-03-07T03:58:02.327Z,14.20
2023-03-07T04:03:06.073Z,12.33
2023-03-07T04:08:10.353Z,15.30
2023-03-07T04:13:15.043Z,13.33
2023-03-07T04:18:18.525Z,15.47
2023-03-07T04:23:23.123Z,13.23
2023-03-07T04:28:29.929Z,15.60
2023-03-07T04:33:33.352Z,13.50
2023-03-07T04:38:38.324Z,14.23
2023-03-07T04:43:43.543Z,11.97
2023-03-07T04:48:47.658Z,14.40
2023-03-07T04:53:51.020Z,14.93
2023-03-07T04:58:56.002Z,13.93
2023-03-07T05:03:59.393Z,12.50
2023-03-07T05:09:02.752Z,14.93
2023-03-07T05:14:07.473Z,13.40
2023-03-07T05:19:11.121Z,14.90
2023-03-07T05:24:14.391Z,14.40
2023-03-07T05:29:19.116Z,14.67
2023-03-07T05:34:22.486Z,14.53
2023-03-07T05:39:27.577Z,15.60
2023-03-07T05:44:34.087Z,19.40
2023-03-07T05:49:37.583Z,15.80
2023-03-07T05:54:40.897Z,15.87
2023-03-07T05:59:45.598Z,14.13
2023-03-07T06:04:48.891Z,14.97
2023-03-07T06:09:52.199Z,15.03
2023-03-07T06:14:56.882Z,14.63
2023-03-07T06:20:00.180Z,15.60
2023-03-07T06:25:03.470Z,16.40
2023-03-07T06:30:10.278Z,13.97
2023-03-07T06:35:13.578Z,15.60
2023-03-07T06:40:17.137Z,17.60
2023-03-07T06:45:21.846Z,15.07
2023-03-07T06:50:34.629Z,15.50
2023-03-07T06:55:38.398Z,14.10
2023-03-07T07:00:43.057Z,17.17
2023-03-07T07:05:46.419Z,15.23
2023-03-07T07:10:49.716Z,14.17
2023-03-07T07:15:54.498Z,16.97
2023-03-07T07:20:57.875Z,15.90
2023-03-07T07:26:01.756Z,19.53
2023-03-07T07:31:06.718Z,18.93
2023-03-07T07:36:10.904Z,19.50
2023-03-07T07:41:14.185Z,19.60
2023-03-07T07:46:18.957Z,16.10
2023-03-07T07:51:22.570Z,16.07
2023-03-07T07:56:25.856Z,15.87
2023-03-07T08:01:30.533Z,18.60
2023-03-07T08:06:33.861Z,19.20
2023-03-07T08:11:37.319Z,16.00
2023-03-07T08:16:42.068Z,15.97
2023-03-07T08:21:45.390Z,16.23
2023-03-07T08:26:48.719Z,17.83
2023-03-07T08:31:54.464Z,14.33
2023-03-07T08:36:57.768Z,13.80
2023-03-07T08:42:01.183Z,15.23
2023-03-07T08:47:06.119Z,14.70
2023-03-07T08:52:09.467Z,17.40
2023-03-07T08:57:12.881Z,15.20
2023-03-07T09:02:17.564Z,14.20
2023-03-07T09:07:20.889Z,19.73
2023-03-07T09:12:24.191Z,12.70
2023-03-07T09:17:28.881Z,13.17
2023-03-07T09:22:32.165Z,18.43
2023-03-07T09:27:35.536Z,16.53
2023-03-07T09:32:40.549Z,14.90
2023-03-07T09:37:43.919Z,14.00
2023-03-07T09:42:58.401Z,14.30
2023-03-07T09:48:37.036Z,15.03
2023-03-07T09:53:44.868Z,15.10
2023-03-07T09:58:55.436Z,14.80
2023-03-07T10:04:02.945Z,16.40
2023-03-07T10:09:08.632Z,12.60
2023-03-07T10:14:27.058Z,14.13
2023-03-07T10:19:43.086Z,14.47
2023-03-07T10:25:07.383Z,16.63
2023-03-07T10:30:16.985Z,14.10
2023-03-07T10:35:24.487Z,16.00
2023-03-07T10:40:32.394Z,13.73
2023-03-07T10:45:38.060Z,15.53
2023-03-07T10:50:47.826Z,14.47
2023-03-07T10:55:51.101Z,14.40
2023-03-07T11:01:03.765Z,14.40
2023-03-07T11:06:25.059Z,13.57
2023-03-07T11:11:33.531Z,15.83
2023-03-07T11:16:42.687Z,13.67
2023-03-07T11:21:54.364Z,12.83
2023-03-07T11:26:59.635Z,15.87
2023-03-07T11:32:15.680Z,14.63
2023-03-07T11:37:34.781Z,14.53
2023-03-07T11:42:43.943Z,13.70
2023-03-07T11:47:58.111Z,13.63
2023-03-07T11:53:35.389Z,15.13
2023-03-07T11:58:56.177Z,13.40
2023-03-07T12:04:38.526Z,13.77
2023-03-07T12:09:52.420Z,14.20
2023-03-07T12:15:03.522Z,15.33
2023-03-07T12:20:25.420Z,15.03
2023-03-07T12:25:35.077Z,15.50
2023-03-07T12:30:52.984Z,15.03
2023-03-07T12:36:00.880Z,16.07
2023-03-07T12:41:20.970Z,15.57
2023-03-07T12:46:34.272Z,17.77
2023-03-07T12:51:41.732Z,16.17
2023-03-07T12:56:51.198Z,13.73
2023-03-07T13:02:00.485Z,16.37
2023-03-07T13:07:10.394Z,14.27
2023-03-07T13:12:36.002Z,15.33
2023-03-07T13:18:00.060Z,16.03
2023-03-07T13:23:22.146Z,16.43
2023-03-07T13:28:52.434Z,15.70
2023-03-07T13:33:55.896Z,14.70
2023-03-07T13:38:59.288Z,14.50
2023-03-07T13:44:04.836Z,16.53
2023-03-07T13:49:08.859Z,15.93
2023-03-07T13:54:14.874Z,15.80
2023-03-07T13:59:28.411Z,16.33
2023-03-07T14:04:45.279Z,15.17
2023-03-07T14:09:52.653Z,14.97
2023-03-07T14:15:17.556Z,16.40
2023-03-07T14:20:27.713Z,14.07
2023-03-07T14:25:33.952Z,14.97
2023-03-07T14:30:38.934Z,15.47
2023-03-07T14:35:43.886Z,15.47
2023-03-07T14:41:09.338Z,16.17
2023-03-07T14:46:24.062Z,16.27
2023-03-07T14:51:29.956Z,22.20
2023-03-07T14:56:34.220Z,14.67
2023-03-07T15:01:41.105Z,15.87
2023-03-07T15:06:45.344Z,13.40
2023-03-07T15:11:53.820Z,14.90
2023-03-07T15:17:01.728Z,14.60
2023-03-07T15:22:08.795Z,15.43
2023-03-07T15:27:16.191Z,14.73
2023-03-07T15:32:36.541Z,14.43
2023-03-07T15:37:53.551Z,14.90
2023-03-07T15:42:58.475Z,13.93
2023-03-07T15:48:09.853Z,14.67
2023-03-07T15:53:27.835Z,12.80
2023-03-07T15:58:32.395Z,10.97
2023-03-07T16:03:37.615Z,13.57
2023-03-07T16:08:41.142Z,12.90
2023-03-07T16:13:46.107Z,15.20
2023-03-07T16:18:52.563Z,13.13
2023-03-07T16:23:55.958Z,18.23
2023-03-07T16:29:02.159Z,12.03
2023-03-07T16:34:10.468Z,13.27
2023-03-07T16:39:14.146Z,11.50
2023-03-07T16:44:19.088Z,15.23
2023-03-07T16:49:23.813Z,13.77
2023-03-07T16:54:28.494Z,14.73
2023-03-07T16:59:36.078Z,13.13
2023-03-07T17:04:43.845Z,11.37
2023-03-07T17:09:47.819Z,12.93
2023-03-07T17:14:52.183Z,11.30
2023-03-07T17:19:59.913Z,15.47
2023-03-07T17:25:05.529Z,12.60
2023-03-07T17:30:12.631Z,11.83
2023-03-07T17:35:18.709Z,12.30
2023-03-07T17:40:23.075Z,12.23
2023-03-07T17:45:27.901Z,10.87
2023-03-07T17:50:34.029Z,15.47
2023-03-07T17:55:39.487Z,11.90
2023-03-07T18:00:44.288Z,11.30
2023-03-07T18:05:50.266Z,11.73
2023-03-07T18:10:56.124Z,10.87
2023-03-07T18:16:02.191Z,10.33
2023-03-07T18:21:11.482Z,10.57
2023-03-07T18:26:15.746Z,10.87
2023-03-07T18:31:21.543Z,9.53
2023-03-07T18:36:27.829Z,10.47
2023-03-07T18:41:32.821Z,11.80
2023-03-07T18:46:39.066Z,11.47
2023-03-07T18:51:46.870Z,11.43
2023-03-07T18:56:51.202Z,9.17
2023-03-07T19:01:55.614Z,12.13
2023-03-07T19:07:03.025Z,10.53
2023-03-07T19:12:08.191Z,11.23
2023-03-07T19:17:12.174Z,12.20
2023-03-07T19:22:22.254Z,10.07
2023-03-07T19:27:28.621Z,13.53
2023-03-07T19:32:34.834Z,12.23
2023-03-07T19:37:43.812Z,11.20
2023-03-07T19:42:49.815Z,13.23
2023-03-07T19:47:56.277Z,11.87
2023-03-07T19:53:03.654Z,10.03
2023-03-07T19:58:08.545Z,10.97
2023-03-07T20:03:16.098Z,10.93
2023-03-07T20:08:24.016Z,11.40
2023-03-07T20:13:31.364Z,11.33
2023-03-07T20:18:37.580Z,12.37
2023-03-07T20:23:46.456Z,10.53
2023-03-07T20:28:52.529Z,13.17
2023-03-07T20:33:59.298Z,11.83
2023-03-07T20:39:09.724Z,11.77
2023-03-07T20:44:16.033Z,10.63
2023-03-07T20:49:21.144Z,11.63
2023-03-07T20:54:28.240Z,11.33
2023-03-07T20:59:35.811Z,11.90
2023-03-07T21:04:40.576Z,12.40
2023-03-07T21:09:51.275Z,11.17
2023-03-07T21:14:56.971Z,14.97
2023-03-07T21:20:02.082Z,13.03
2023-03-07T21:25:09.261Z,12.73
2023-03-07T21:30:16.590Z,11.43
2023-03-07T21:35:21.240Z,10.93
2023-03-07T21:40:28.959Z,10.70
2023-03-07T21:45:34.059Z,12.60
2023-03-07T21:50:39.372Z,10.90
2023-03-07T21:55:51.378Z,11.63
2023-03-07T22:00:56.555Z,11.40
2023-03-07T22:06:00.315Z,11.33
2023-03-07T22:11:07.173Z,12.17
2023-03-07T22:16:12.950Z,12.23
2023-03-07T22:21:17.381Z,11.53
2023-03-07T22:26:22.123Z,10.90
2023-03-07T22:31:26.045Z,11.07
2023-03-07T22:36:29.553Z,10.53
2023-03-07T22:41:34.681Z,11.77
2023-03-07T22:46:38.018Z,10.97
2023-03-07T22:51:41.546Z,12.47
2023-03-07T22:56:46.431Z,10.80
2023-03-07T23:01:49.791Z,10.70
2023-03-07T23:06:53.212Z,12.43
2023-03-07T23:11:58.000Z,10.23
2023-03-07T23:17:01.328Z,11.40
2023-03-07T23:22:04.827Z,11.13
2023-03-07T23:27:09.599Z,11.57
2023-03-07T23:37:41.806Z,10.97
2023-03-07T23:42:46.561Z,9.03
2023-03-07T23:47:49.949Z,11.47
2023-03-07T23:52:53.276Z,10.87
2023-03-07T23:57:58.005Z,10.90
